Voorschoten, Netherlands
Current Conditions -  °F | °C
As of 9:25 PM on Saturday 25 Oct 2014 (Local Time) from EHRD Reporting Station
Scattered Clouds Scattered Clouds  
Wind Chill: 52°   Ceiling: Unl
Heat Index: 52°   Visibility: 6mi
Dew Point: 46°   Wind: 8mph
Humidity: 82%   Direction: 220°SW
Pressure: 30.12"   Gusts: NA
Location:  52.13°N, 4.45°E
Report Text: EHRD 251925Z AUTO 22007KT 9999 SCT035 11/08 Q1020 NOSIG
Loading
Personal Weather Stations






























Interactive Weather Map
Tropical Storm Tracking
New forecast layout! Learn more

10-Day Weather Forecast

Advertisements
Track Severe Weather on mobile